Aviation Digital Data Service (ADDS)

Output produced by METARs form (0423 UTC 26 October 2014)
found at http://aviationweather.gov/adds/metars/
 
KSLK 260212Z 2602/2624 23007KT 6SM -SHRA BR BKN035 
     TEMPO 2602/2605 BKN012 OVC035 
     FM260500 24007G15KT 6SM -SHRA BR OVC015 
     TEMPO 2611/2615 OVC008 
     FM261500 25009G20KT 6SM -SHRA BR OVC015